sensor_id;sensor_type;location;lat;lon;timestamp;P1;durP1;ratioP1;P2;durP2;ratioP2
8831;SDS011;4452;50.756;4.472;2023-04-15T00:01:22;3.13;;;2.50;;
8831;SDS011;4452;50.756;4.472;2023-04-15T00:03:49;4.07;;;2.50;;
8831;SDS011;4452;50.756;4.472;2023-04-15T00:06:19;2.90;;;2.63;;
8831;SDS011;4452;50.756;4.472;2023-04-15T00:08:46;3.20;;;2.90;;
8831;SDS011;4452;50.756;4.472;2023-04-15T00:11:12;5.40;;;2.50;;
8831;SDS011;4452;50.756;4.472;2023-04-15T00:13:38;8.25;;;2.72;;
8831;SDS011;4452;50.756;4.472;2023-04-15T00:16:04;3.97;;;2.60;;
8831;SDS011;4452;50.756;4.472;2023-04-15T00:18:32;7.55;;;3.40;;
8831;SDS011;4452;50.756;4.472;2023-04-15T00:20:58;5.15;;;3.20;;
8831;SDS011;4452;50.756;4.472;2023-04-15T00:23:24;5.65;;;2.85;;
8831;SDS011;4452;50.756;4.472;2023-04-15T00:25:50;3.97;;;2.33;;
8831;SDS011;4452;50.756;4.472;2023-04-15T00:28:16;2.60;;;2.40;;
8831;SDS011;4452;50.756;4.472;2023-04-15T00:30:42;7.32;;;2.20;;
8831;SDS011;4452;50.756;4.472;2023-04-15T00:33:08;2.78;;;2.30;;
8831;SDS011;4452;50.756;4.472;2023-04-15T00:35:33;2.33;;;2.15;;
8831;SDS011;4452;50.756;4.472;2023-04-15T00:38:01;6.18;;;2.50;;
8831;SDS011;4452;50.756;4.472;2023-04-15T00:40:28;3.10;;;2.28;;
8831;SDS011;4452;50.756;4.472;2023-04-15T00:42:54;2.78;;;2.55;;
8831;SDS011;4452;50.756;4.472;2023-04-15T00:45:20;4.10;;;2.83;;
8831;SDS011;4452;50.756;4.472;2023-04-15T00:47:45;4.15;;;2.83;;
8831;SDS011;4452;50.756;4.472;2023-04-15T00:50:11;2.80;;;2.42;;
8831;SDS011;4452;50.756;4.472;2023-04-15T00:52:37;4.05;;;2.90;;
8831;SDS011;4452;50.756;4.472;2023-04-15T00:55:04;3.47;;;2.95;;
8831;SDS011;4452;50.756;4.472;2023-04-15T00:57:30;3.70;;;3.33;;
8831;SDS011;4452;50.756;4.472;2023-04-15T00:59:57;6.03;;;2.97;;
8831;SDS011;4452;50.756;4.472;2023-04-15T01:02:23;5.57;;;3.20;;
8831;SDS011;4452;50.756;4.472;2023-04-15T01:04:48;3.10;;;2.80;;
8831;SDS011;4452;50.756;4.472;2023-04-15T01:07:14;5.25;;;3.20;;
8831;SDS011;4452;50.756;4.472;2023-04-15T01:09:40;5.03;;;3.38;;
8831;SDS011;4452;50.756;4.472;2023-04-15T01:12:06;6.03;;;3.50;;
8831;SDS011;4452;50.756;4.472;2023-04-15T01:14:34;6.18;;;3.92;;
8831;SDS011;4452;50.756;4.472;2023-04-15T01:17:00;3.90;;;3.35;;
8831;SDS011;4452;50.756;4.472;2023-04-15T01:19:26;7.70;;;3.88;;
8831;SDS011;4452;50.756;4.472;2023-04-15T01:21:52;5.82;;;3.13;;
8831;SDS011;4452;50.756;4.472;2023-04-15T01:24:18;4.03;;;3.60;;
8831;SDS011;4452;50.756;4.472;2023-04-15T01:26:44;4.80;;;4.00;;
8831;SDS011;4452;50.756;4.472;2023-04-15T01:29:10;5.82;;;3.88;;
8831;SDS011;4452;50.756;4.472;2023-04-15T01:31:37;3.70;;;3.40;;
8831;SDS011;4452;50.756;4.472;2023-04-15T01:34:03;5.07;;;4.05;;
8831;SDS011;4452;50.756;4.472;2023-04-15T01:36:28;7.55;;;4.15;;
8831;SDS011;4452;50.756;4.472;2023-04-15T01:38:54;4.93;;;3.95;;
8831;SDS011;4452;50.756;4.472;2023-04-15T01:41:25;4.63;;;4.18;;
8831;SDS011;4452;50.756;4.472;2023-04-15T01:43:51;3.83;;;3.05;;
8831;SDS011;4452;50.756;4.472;2023-04-15T01:46:17;5.43;;;3.55;;
8831;SDS011;4452;50.756;4.472;2023-04-15T01:48:42;5.85;;;3.60;;
8831;SDS011;4452;50.756;4.472;2023-04-15T01:51:08;4.38;;;3.85;;
8831;SDS011;4452;50.756;4.472;2023-04-15T01:53:34;6.35;;;3.80;;
8831;SDS011;4452;50.756;4.472;2023-04-15T01:55:59;6.38;;;4.55;;
8831;SDS011;4452;50.756;4.472;2023-04-15T01:58:25;4.32;;;3.78;;
8831;SDS011;4452;50.756;4.472;2023-04-15T02:00:51;5.15;;;3.70;;
8831;SDS011;4452;50.756;4.472;2023-04-15T02:03:16;3.85;;;3.55;;
8831;SDS011;4452;50.756;4.472;2023-04-15T02:05:42;4.97;;;3.92;;
8831;SDS011;4452;50.756;4.472;2023-04-15T02:08:08;5.45;;;3.92;;
8831;SDS011;4452;50.756;4.472;2023-04-15T02:10:33;6.85;;;4.25;;
8831;SDS011;4452;50.756;4.472;2023-04-15T02:12:59;8.52;;;4.20;;
8831;SDS011;4452;50.756;4.472;2023-04-15T02:15:25;4.90;;;4.40;;
8831;SDS011;4452;50.756;4.472;2023-04-15T02:17:51;5.35;;;4.47;;
8831;SDS011;4452;50.756;4.472;2023-04-15T02:20:19;5.80;;;4.95;;
8831;SDS011;4452;50.756;4.472;2023-04-15T02:22:45;5.90;;;4.88;;
8831;SDS011;4452;50.756;4.472;2023-04-15T02:25:12;5.90;;;5.00;;
8831;SDS011;4452;50.756;4.472;2023-04-15T02:27:38;9.57;;;5.10;;
8831;SDS011;4452;50.756;4.472;2023-04-15T02:30:04;5.47;;;4.30;;
8831;SDS011;4452;50.756;4.472;2023-04-15T02:32:31;7.85;;;4.60;;
8831;SDS011;4452;50.756;4.472;2023-04-15T02:35:01;9.77;;;5.10;;
8831;SDS011;4452;50.756;4.472;2023-04-15T02:37:28;11.35;;;5.18;;
8831;SDS011;4452;50.756;4.472;2023-04-15T02:39:55;9.35;;;4.88;;
8831;SDS011;4452;50.756;4.472;2023-04-15T02:42:20;6.85;;;5.25;;
8831;SDS011;4452;50.756;4.472;2023-04-15T02:44:46;5.75;;;5.15;;
8831;SDS011;4452;50.756;4.472;2023-04-15T02:47:11;5.70;;;4.82;;
8831;SDS011;4452;50.756;4.472;2023-04-15T02:49:38;6.22;;;5.03;;
8831;SDS011;4452;50.756;4.472;2023-04-15T02:52:04;5.45;;;4.60;;
8831;SDS011;4452;50.756;4.472;2023-04-15T02:54:31;7.68;;;5.03;;
8831;SDS011;4452;50.756;4.472;2023-04-15T02:56:58;8.18;;;5.07;;
8831;SDS011;4452;50.756;4.472;2023-04-15T02:59:24;9.23;;;5.22;;
8831;SDS011;4452;50.756;4.472;2023-04-15T03:01:49;5.97;;;4.70;;
8831;SDS011;4452;50.756;4.472;2023-04-15T03:04:15;7.57;;;5.18;;
8831;SDS011;4452;50.756;4.472;2023-04-15T03:06:41;6.10;;;4.93;;
8831;SDS011;4452;50.756;4.472;2023-04-15T03:09:06;7.72;;;5.50;;
8831;SDS011;4452;50.756;4.472;2023-04-15T03:11:32;8.05;;;5.18;;
8831;SDS011;4452;50.756;4.472;2023-04-15T03:13:58;7.35;;;5.80;;
8831;SDS011;4452;50.756;4.472;2023-04-15T03:16:23;9.30;;;5.80;;
8831;SDS011;4452;50.756;4.472;2023-04-15T03:18:49;11.82;;;6.78;;
8831;SDS011;4452;50.756;4.472;2023-04-15T03:21:15;9.73;;;6.90;;
8831;SDS011;4452;50.756;4.472;2023-04-15T03:23:41;9.35;;;6.47;;
8831;SDS011;4452;50.756;4.472;2023-04-15T03:26:06;10.65;;;6.50;;
8831;SDS011;4452;50.756;4.472;2023-04-15T03:28:32;22.90;;;7.07;;
8831;SDS011;4452;50.756;4.472;2023-04-15T03:30:58;11.63;;;7.28;;
8831;SDS011;4452;50.756;4.472;2023-04-15T03:33:24;20.20;;;8.63;;
8831;SDS011;4452;50.756;4.472;2023-04-15T03:35:50;16.48;;;8.60;;
8831;SDS011;4452;50.756;4.472;2023-04-15T03:38:17;20.95;;;9.40;;
8831;SDS011;4452;50.756;4.472;2023-04-15T03:40:43;19.70;;;8.68;;
8831;SDS011;4452;50.756;4.472;2023-04-15T03:43:11;20.50;;;9.60;;
8831;SDS011;4452;50.756;4.472;2023-04-15T03:45:37;28.05;;;11.73;;
8831;SDS011;4452;50.756;4.472;2023-04-15T03:48:02;26.73;;;11.13;;
8831;SDS011;4452;50.756;4.472;2023-04-15T03:50:28;34.67;;;11.55;;
8831;SDS011;4452;50.756;4.472;2023-04-15T03:52:54;25.48;;;12.25;;
8831;SDS011;4452;50.756;4.472;2023-04-15T03:55:19;236.02;;;24.80;;
8831;SDS011;4452;50.756;4.472;2023-04-15T03:57:45;29.35;;;13.48;;
8831;SDS011;4452;50.756;4.472;2023-04-15T04:00:11;22.70;;;11.07;;
8831;SDS011;4452;50.756;4.472;2023-04-15T04:02:36;33.42;;;13.30;;
8831;SDS011;4452;50.756;4.472;2023-04-15T04:05:02;28.73;;;13.95;;
8831;SDS011;4452;50.756;4.472;2023-04-15T04:07:28;25.73;;;12.43;;
8831;SDS011;4452;50.756;4.472;2023-04-15T04:09:56;28.77;;;12.55;;
8831;SDS011;4452;50.756;4.472;2023-04-15T04:12:22;29.05;;;13.90;;
8831;SDS011;4452;50.756;4.472;2023-04-15T04:14:47;29.90;;;14.13;;
8831;SDS011;4452;50.756;4.472;2023-04-15T04:17:13;30.33;;;14.00;;
8831;SDS011;4452;50.756;4.472;2023-04-15T04:19:39;30.60;;;13.43;;
8831;SDS011;4452;50.756;4.472;2023-04-15T04:22:04;33.90;;;14.27;;
8831;SDS011;4452;50.756;4.472;2023-04-15T04:24:30;27.60;;;14.55;;
8831;SDS011;4452;50.756;4.472;2023-04-15T04:26:56;37.90;;;14.85;;
8831;SDS011;4452;50.756;4.472;2023-04-15T04:29:22;29.13;;;14.45;;
8831;SDS011;4452;50.756;4.472;2023-04-15T04:31:47;27.67;;;12.80;;
8831;SDS011;4452;50.756;4.472;2023-04-15T04:34:13;17.42;;;10.75;;
8831;SDS011;4452;50.756;4.472;2023-04-15T04:36:40;20.40;;;11.52;;
8831;SDS011;4452;50.756;4.472;2023-04-15T04:39:05;18.48;;;11.07;;
8831;SDS011;4452;50.756;4.472;2023-04-15T04:41:31;18.70;;;11.77;;
8831;SDS011;4452;50.756;4.472;2023-04-15T04:43:57;20.25;;;11.30;;
8831;SDS011;4452;50.756;4.472;2023-04-15T04:46:23;20.15;;;10.70;;
8831;SDS011;4452;50.756;4.472;2023-04-15T04:48:48;20.08;;;12.35;;
8831;SDS011;4452;50.756;4.472;2023-04-15T04:51:14;22.50;;;11.55;;
8831;SDS011;4452;50.756;4.472;2023-04-15T04:53:40;18.42;;;10.80;;
8831;SDS011;4452;50.756;4.472;2023-04-15T04:56:07;18.98;;;11.43;;
8831;SDS011;4452;50.756;4.472;2023-04-15T04:58:32;20.10;;;11.63;;
8831;SDS011;4452;50.756;4.472;2023-04-15T05:00:58;25.02;;;11.98;;
8831;SDS011;4452;50.756;4.472;2023-04-15T05:03:24;27.05;;;12.63;;
8831;SDS011;4452;50.756;4.472;2023-04-15T05:05:49;24.88;;;12.63;;
8831;SDS011;4452;50.756;4.472;2023-04-15T05:08:15;25.85;;;12.40;;
8831;SDS011;4452;50.756;4.472;2023-04-15T05:10:41;23.58;;;12.82;;
8831;SDS011;4452;50.756;4.472;2023-04-15T05:13:06;24.08;;;13.20;;
8831;SDS011;4452;50.756;4.472;2023-04-15T05:15:32;27.33;;;13.32;;
8831;SDS011;4452;50.756;4.472;2023-04-15T05:18:00;18.20;;;11.13;;
8831;SDS011;4452;50.756;4.472;2023-04-15T05:20:26;24.10;;;12.18;;
8831;SDS011;4452;50.756;4.472;2023-04-15T05:22:52;17.95;;;10.60;;
8831;SDS011;4452;50.756;4.472;2023-04-15T05:25:17;20.30;;;12.05;;
8831;SDS011;4452;50.756;4.472;2023-04-15T05:27:43;19.30;;;11.27;;
8831;SDS011;4452;50.756;4.472;2023-04-15T05:30:09;23.10;;;12.23;;
8831;SDS011;4452;50.756;4.472;2023-04-15T05:32:35;22.25;;;11.88;;
8831;SDS011;4452;50.756;4.472;2023-04-15T05:35:01;22.15;;;12.10;;
8831;SDS011;4452;50.756;4.472;2023-04-15T05:37:28;22.40;;;11.98;;
8831;SDS011;4452;50.756;4.472;2023-04-15T05:39:54;21.45;;;12.07;;
8831;SDS011;4452;50.756;4.472;2023-04-15T05:42:20;18.77;;;11.82;;
8831;SDS011;4452;50.756;4.472;2023-04-15T05:44:46;26.55;;;12.20;;
8831;SDS011;4452;50.756;4.472;2023-04-15T05:47:12;32.08;;;15.27;;
8831;SDS011;4452;50.756;4.472;2023-04-15T05:49:37;23.65;;;13.13;;
8831;SDS011;4452;50.756;4.472;2023-04-15T05:52:03;20.38;;;11.38;;
8831;SDS011;4452;50.756;4.472;2023-04-15T05:54:29;19.30;;;10.57;;
8831;SDS011;4452;50.756;4.472;2023-04-15T05:56:54;14.52;;;9.48;;
8831;SDS011;4452;50.756;4.472;2023-04-15T05:59:21;14.27;;;7.78;;
8831;SDS011;4452;50.756;4.472;2023-04-15T06:01:47;17.60;;;8.77;;
8831;SDS011;4452;50.756;4.472;2023-04-15T06:04:13;14.50;;;9.02;;
8831;SDS011;4452;50.756;4.472;2023-04-15T06:06:39;17.52;;;9.98;;
8831;SDS011;4452;50.756;4.472;2023-04-15T06:09:05;13.48;;;9.15;;
8831;SDS011;4452;50.756;4.472;2023-04-15T06:11:30;19.05;;;9.20;;
8831;SDS011;4452;50.756;4.472;2023-04-15T06:13:56;16.95;;;9.45;;
8831;SDS011;4452;50.756;4.472;2023-04-15T06:16:22;16.60;;;9.93;;
8831;SDS011;4452;50.756;4.472;2023-04-15T06:18:47;17.08;;;9.30;;
8831;SDS011;4452;50.756;4.472;2023-04-15T06:21:13;18.60;;;10.75;;
8831;SDS011;4452;50.756;4.472;2023-04-15T06:23:40;16.17;;;10.02;;
8831;SDS011;4452;50.756;4.472;2023-04-15T06:26:06;24.95;;;10.73;;
8831;SDS011;4452;50.756;4.472;2023-04-15T06:28:32;18.02;;;9.82;;
8831;SDS011;4452;50.756;4.472;2023-04-15T06:30:57;14.90;;;10.07;;
8831;SDS011;4452;50.756;4.472;2023-04-15T06:33:23;15.48;;;9.70;;
8831;SDS011;4452;50.756;4.472;2023-04-15T06:35:49;14.38;;;9.27;;
8831;SDS011;4452;50.756;4.472;2023-04-15T06:38:15;12.02;;;9.70;;
8831;SDS011;4452;50.756;4.472;2023-04-15T06:40:40;11.38;;;9.38;;
8831;SDS011;4452;50.756;4.472;2023-04-15T06:43:06;13.95;;;9.30;;
8831;SDS011;4452;50.756;4.472;2023-04-15T06:45:33;15.23;;;10.10;;
8831;SDS011;4452;50.756;4.472;2023-04-15T06:47:58;18.70;;;10.57;;
8831;SDS011;4452;50.756;4.472;2023-04-15T06:50:24;18.70;;;10.23;;
8831;SDS011;4452;50.756;4.472;2023-04-15T06:52:50;16.90;;;10.55;;
8831;SDS011;4452;50.756;4.472;2023-04-15T06:55:15;14.68;;;10.77;;
8831;SDS011;4452;50.756;4.472;2023-04-15T06:57:41;13.45;;;9.65;;
8831;SDS011;4452;50.756;4.472;2023-04-15T07:00:07;14.30;;;8.98;;
8831;SDS011;4452;50.756;4.472;2023-04-15T07:02:35;15.40;;;9.40;;
8831;SDS011;4452;50.756;4.472;2023-04-15T07:05:00;15.32;;;9.10;;
8831;SDS011;4452;50.756;4.472;2023-04-15T07:07:26;10.27;;;7.82;;
8831;SDS011;4452;50.756;4.472;2023-04-15T07:09:52;14.80;;;8.90;;
8831;SDS011;4452;50.756;4.472;2023-04-15T07:12:18;14.10;;;8.70;;
8831;SDS011;4452;50.756;4.472;2023-04-15T07:14:44;11.90;;;8.90;;
8831;SDS011;4452;50.756;4.472;2023-04-15T07:17:09;17.63;;;8.57;;
8831;SDS011;4452;50.756;4.472;2023-04-15T07:19:36;14.75;;;8.48;;
8831;SDS011;4452;50.756;4.472;2023-04-15T07:22:02;12.98;;;7.95;;
8831;SDS011;4452;50.756;4.472;2023-04-15T07:24:27;13.18;;;7.55;;
8831;SDS011;4452;50.756;4.472;2023-04-15T07:26:54;11.73;;;7.22;;
8831;SDS011;4452;50.756;4.472;2023-04-15T07:29:23;12.23;;;7.47;;
8831;SDS011;4452;50.756;4.472;2023-04-15T07:31:49;12.25;;;7.65;;
8831;SDS011;4452;50.756;4.472;2023-04-15T07:34:15;12.93;;;7.72;;
8831;SDS011;4452;50.756;4.472;2023-04-15T07:36:41;13.82;;;7.40;;
8831;SDS011;4452;50.756;4.472;2023-04-15T07:39:07;9.82;;;6.18;;
8831;SDS011;4452;50.756;4.472;2023-04-15T07:41:33;10.52;;;6.40;;
8831;SDS011;4452;50.756;4.472;2023-04-15T07:43:58;9.40;;;6.20;;
8831;SDS011;4452;50.756;4.472;2023-04-15T07:46:25;10.55;;;5.32;;
8831;SDS011;4452;50.756;4.472;2023-04-15T07:48:51;10.95;;;6.38;;
8831;SDS011;4452;50.756;4.472;2023-04-15T07:51:18;8.80;;;4.95;;
8831;SDS011;4452;50.756;4.472;2023-04-15T07:53:45;10.02;;;6.10;;
8831;SDS011;4452;50.756;4.472;2023-04-15T07:56:12;11.18;;;5.72;;
8831;SDS011;4452;50.756;4.472;2023-04-15T07:58:38;13.18;;;6.72;;
8831;SDS011;4452;50.756;4.472;2023-04-15T08:01:03;11.23;;;6.80;;
8831;SDS011;4452;50.756;4.472;2023-04-15T08:03:29;16.58;;;7.97;;
8831;SDS011;4452;50.756;4.472;2023-04-15T08:05:56;18.42;;;7.88;;
8831;SDS011;4452;50.756;4.472;2023-04-15T08:08:21;19.13;;;7.65;;
8831;SDS011;4452;50.756;4.472;2023-04-15T08:10:48;12.73;;;7.82;;
8831;SDS011;4452;50.756;4.472;2023-04-15T08:13:14;22.00;;;9.02;;
8831;SDS011;4452;50.756;4.472;2023-04-15T08:15:40;15.60;;;8.23;;
8831;SDS011;4452;50.756;4.472;2023-04-15T08:18:06;17.27;;;9.30;;
8831;SDS011;4452;50.756;4.472;2023-04-15T08:20:32;13.75;;;9.52;;
8831;SDS011;4452;50.756;4.472;2023-04-15T08:22:58;16.23;;;9.18;;
8831;SDS011;4452;50.756;4.472;2023-04-15T08:25:23;13.35;;;8.77;;
8831;SDS011;4452;50.756;4.472;2023-04-15T08:27:49;15.70;;;9.43;;
8831;SDS011;4452;50.756;4.472;2023-04-15T08:30:15;20.98;;;10.27;;
8831;SDS011;4452;50.756;4.472;2023-04-15T08:32:41;14.13;;;9.23;;
8831;SDS011;4452;50.756;4.472;2023-04-15T08:35:11;17.52;;;9.50;;
8831;SDS011;4452;50.756;4.472;2023-04-15T08:37:37;13.65;;;8.60;;
8831;SDS011;4452;50.756;4.472;2023-04-15T08:40:03;20.08;;;9.68;;
8831;SDS011;4452;50.756;4.472;2023-04-15T08:42:35;16.08;;;9.32;;
8831;SDS011;4452;50.756;4.472;2023-04-15T08:45:05;11.15;;;9.25;;
8831;SDS011;4452;50.756;4.472;2023-04-15T08:47:35;15.10;;;9.05;;
8831;SDS011;4452;50.756;4.472;2023-04-15T08:50:03;16.77;;;9.32;;
8831;SDS011;4452;50.756;4.472;2023-04-15T08:52:33;12.93;;;8.27;;
8831;SDS011;4452;50.756;4.472;2023-04-15T08:54:59;14.82;;;9.13;;
8831;SDS011;4452;50.756;4.472;2023-04-15T08:57:27;19.40;;;9.88;;
8831;SDS011;4452;50.756;4.472;2023-04-15T08:59:56;16.33;;;9.57;;
8831;SDS011;4452;50.756;4.472;2023-04-15T09:02:22;17.95;;;8.93;;
8831;SDS011;4452;50.756;4.472;2023-04-15T09:04:50;13.80;;;9.07;;
8831;SDS011;4452;50.756;4.472;2023-04-15T09:07:15;17.45;;;10.00;;
8831;SDS011;4452;50.756;4.472;2023-04-15T09:09:41;14.77;;;8.82;;
8831;SDS011;4452;50.756;4.472;2023-04-15T09:12:07;11.10;;;9.70;;
8831;SDS011;4452;50.756;4.472;2023-04-15T09:14:33;17.05;;;9.45;;
8831;SDS011;4452;50.756;4.472;2023-04-15T09:17:00;14.65;;;9.32;;
8831;SDS011;4452;50.756;4.472;2023-04-15T09:19:26;14.90;;;9.60;;
8831;SDS011;4452;50.756;4.472;2023-04-15T09:21:53;17.23;;;8.63;;
8831;SDS011;4452;50.756;4.472;2023-04-15T09:24:23;16.17;;;7.63;;
8831;SDS011;4452;50.756;4.472;2023-04-15T09:26:53;10.13;;;7.45;;
8831;SDS011;4452;50.756;4.472;2023-04-15T09:29:23;14.10;;;7.72;;
8831;SDS011;4452;50.756;4.472;2023-04-15T09:31:53;14.93;;;7.38;;
8831;SDS011;4452;50.756;4.472;2023-04-15T09:34:19;10.82;;;7.45;;
8831;SDS011;4452;50.756;4.472;2023-04-15T09:36:55;11.75;;;6.85;;
8831;SDS011;4452;50.756;4.472;2023-04-15T09:39:21;10.63;;;6.47;;
8831;SDS011;4452;50.756;4.472;2023-04-15T09:42:03;7.20;;;6.22;;
8831;SDS011;4452;50.756;4.472;2023-04-15T09:44:32;15.93;;;7.50;;
8831;SDS011;4452;50.756;4.472;2023-04-15T09:46:58;13.63;;;7.43;;
8831;SDS011;4452;50.756;4.472;2023-04-15T09:49:23;11.55;;;8.25;;
8831;SDS011;4452;50.756;4.472;2023-04-15T09:51:49;14.43;;;7.40;;
8831;SDS011;4452;50.756;4.472;2023-04-15T09:54:18;8.65;;;6.95;;
8831;SDS011;4452;50.756;4.472;2023-04-15T09:56:46;10.95;;;6.60;;
8831;SDS011;4452;50.756;4.472;2023-04-15T09:59:12;12.02;;;7.28;;
8831;SDS011;4452;50.756;4.472;2023-04-15T10:01:38;10.60;;;6.40;;
8831;SDS011;4452;50.756;4.472;2023-04-15T10:04:06;11.43;;;7.35;;
8831;SDS011;4452;50.756;4.472;2023-04-15T10:06:33;8.75;;;7.05;;
8831;SDS011;4452;50.756;4.472;2023-04-15T10:09:01;9.10;;;6.60;;
8831;SDS011;4452;50.756;4.472;2023-04-15T10:11:27;11.52;;;7.55;;
8831;SDS011;4452;50.756;4.472;2023-04-15T10:13:54;16.42;;;8.20;;
8831;SDS011;4452;50.756;4.472;2023-04-15T10:16:20;9.73;;;7.47;;
8831;SDS011;4452;50.756;4.472;2023-04-15T10:18:50;9.85;;;7.65;;
8831;SDS011;4452;50.756;4.472;2023-04-15T10:21:20;9.18;;;6.70;;
8831;SDS011;4452;50.756;4.472;2023-04-15T10:23:47;9.23;;;5.25;;
8831;SDS011;4452;50.756;4.472;2023-04-15T10:26:14;10.30;;;6.03;;
8831;SDS011;4452;50.756;4.472;2023-04-15T10:28:41;9.23;;;5.78;;
8831;SDS011;4452;50.756;4.472;2023-04-15T10:31:07;9.05;;;6.35;;
8831;SDS011;4452;50.756;4.472;2023-04-15T10:33:40;17.23;;;6.88;;
8831;SDS011;4452;50.756;4.472;2023-04-15T10:36:08;8.43;;;5.95;;
8831;SDS011;4452;50.756;4.472;2023-04-15T10:38:38;9.73;;;7.05;;
8831;SDS011;4452;50.756;4.472;2023-04-15T10:41:15;7.68;;;5.13;;
8831;SDS011;4452;50.756;4.472;2023-04-15T10:44:01;9.23;;;5.95;;
8831;SDS011;4452;50.756;4.472;2023-04-15T10:49:16;11.82;;;5.72;;
8831;SDS011;4452;50.756;4.472;2023-04-15T10:51:54;5.88;;;5.35;;
8831;SDS011;4452;50.756;4.472;2023-04-15T10:56:52;6.95;;;4.70;;
8831;SDS011;4452;50.756;4.472;2023-04-15T10:59:31;7.00;;;5.27;;
8831;SDS011;4452;50.756;4.472;2023-04-15T11:02:05;7.13;;;5.40;;
8831;SDS011;4452;50.756;4.472;2023-04-15T11:04:50;8.02;;;4.30;;
8831;SDS011;4452;50.756;4.472;2023-04-15T11:12:45;6.38;;;4.07;;
8831;SDS011;4452;50.756;4.472;2023-04-15T11:15:32;5.38;;;4.32;;
8831;SDS011;4452;50.756;4.472;2023-04-15T11:18:08;7.93;;;3.72;;
8831;SDS011;4452;50.756;4.472;2023-04-15T11:20:35;5.80;;;4.10;;
8831;SDS011;4452;50.756;4.472;2023-04-15T11:23:01;4.05;;;3.65;;
8831;SDS011;4452;50.756;4.472;2023-04-15T11:25:27;5.60;;;3.97;;
8831;SDS011;4452;50.756;4.472;2023-04-15T11:27:54;6.55;;;3.70;;
8831;SDS011;4452;50.756;4.472;2023-04-15T11:30:22;5.95;;;4.45;;
8831;SDS011;4452;50.756;4.472;2023-04-15T11:32:50;5.80;;;4.18;;
8831;SDS011;4452;50.756;4.472;2023-04-15T11:35:17;6.03;;;4.80;;
8831;SDS011;4452;50.756;4.472;2023-04-15T11:37:43;8.25;;;4.75;;
8831;SDS011;4452;50.756;4.472;2023-04-15T11:40:10;7.03;;;4.70;;
8831;SDS011;4452;50.756;4.472;2023-04-15T11:42:36;3.92;;;3.35;;
8831;SDS011;4452;50.756;4.472;2023-04-15T11:45:09;10.88;;;3.00;;
8831;SDS011;4452;50.756;4.472;2023-04-15T11:47:35;4.53;;;3.03;;
8831;SDS011;4452;50.756;4.472;2023-04-15T11:55:23;4.30;;;3.90;;
8831;SDS011;4452;50.756;4.472;2023-04-15T12:00:32;8.85;;;4.60;;
8831;SDS011;4452;50.756;4.472;2023-04-15T12:06:03;5.05;;;4.45;;
8831;SDS011;4452;50.756;4.472;2023-04-15T12:11:20;4.53;;;3.92;;
8831;SDS011;4452;50.756;4.472;2023-04-15T12:14:01;4.13;;;3.78;;
8831;SDS011;4452;50.756;4.472;2023-04-15T12:16:30;3.83;;;3.10;;
8831;SDS011;4452;50.756;4.472;2023-04-15T12:18:57;4.80;;;3.30;;
8831;SDS011;4452;50.756;4.472;2023-04-15T12:21:25;3.10;;;2.90;;
8831;SDS011;4452;50.756;4.472;2023-04-15T12:23:56;4.00;;;2.75;;
8831;SDS011;4452;50.756;4.472;2023-04-15T12:26:36;3.17;;;2.40;;
8831;SDS011;4452;50.756;4.472;2023-04-15T12:29:07;3.03;;;2.83;;
8831;SDS011;4452;50.756;4.472;2023-04-15T12:31:34;2.67;;;2.58;;
8831;SDS011;4452;50.756;4.472;2023-04-15T12:34:06;3.42;;;3.13;;
8831;SDS011;4452;50.756;4.472;2023-04-15T12:36:32;3.83;;;3.53;;
8831;SDS011;4452;50.756;4.472;2023-04-15T12:39:04;5.15;;;3.88;;
8831;SDS011;4452;50.756;4.472;2023-04-15T12:41:31;6.25;;;3.00;;
8831;SDS011;4452;50.756;4.472;2023-04-15T12:43:56;3.33;;;3.13;;
8831;SDS011;4452;50.756;4.472;2023-04-15T12:46:22;4.15;;;3.10;;
8831;SDS011;4452;50.756;4.472;2023-04-15T12:48:49;5.22;;;3.55;;
8831;SDS011;4452;50.756;4.472;2023-04-15T12:51:15;4.50;;;2.95;;
8831;SDS011;4452;50.756;4.472;2023-04-15T12:53:40;3.28;;;2.78;;
8831;SDS011;4452;50.756;4.472;2023-04-15T12:56:06;3.03;;;2.83;;
8831;SDS011;4452;50.756;4.472;2023-04-15T12:58:32;3.58;;;3.10;;
8831;SDS011;4452;50.756;4.472;2023-04-15T13:00:58;4.93;;;3.10;;
8831;SDS011;4452;50.756;4.472;2023-04-15T13:03:23;3.28;;;3.00;;
8831;SDS011;4452;50.756;4.472;2023-04-15T13:05:49;3.47;;;3.28;;
8831;SDS011;4452;50.756;4.472;2023-04-15T13:08:15;4.28;;;3.88;;
8831;SDS011;4452;50.756;4.472;2023-04-15T13:10:41;4.38;;;3.70;;
8831;SDS011;4452;50.756;4.472;2023-04-15T13:13:07;4.40;;;3.65;;
8831;SDS011;4452;50.756;4.472;2023-04-15T13:15:32;9.32;;;3.13;;
8831;SDS011;4452;50.756;4.472;2023-04-15T13:17:58;2.83;;;2.50;;
8831;SDS011;4452;50.756;4.472;2023-04-15T13:20:24;2.58;;;2.30;;
8831;SDS011;4452;50.756;4.472;2023-04-15T13:22:51;2.50;;;2.30;;
8831;SDS011;4452;50.756;4.472;2023-04-15T13:25:17;3.42;;;2.83;;
8831;SDS011;4452;50.756;4.472;2023-04-15T13:27:42;3.70;;;2.55;;
8831;SDS011;4452;50.756;4.472;2023-04-15T13:30:08;3.53;;;2.17;;
8831;SDS011;4452;50.756;4.472;2023-04-15T13:32:34;2.75;;;2.53;;
8831;SDS011;4452;50.756;4.472;2023-04-15T13:35:00;2.58;;;2.38;;
8831;SDS011;4452;50.756;4.472;2023-04-15T13:37:26;4.85;;;2.72;;
8831;SDS011;4452;50.756;4.472;2023-04-15T13:39:52;4.00;;;2.72;;
8831;SDS011;4452;50.756;4.472;2023-04-15T13:42:19;4.18;;;3.08;;
8831;SDS011;4452;50.756;4.472;2023-04-15T13:44:45;4.68;;;2.90;;
8831;SDS011;4452;50.756;4.472;2023-04-15T13:47:11;5.15;;;3.30;;
8831;SDS011;4452;50.756;4.472;2023-04-15T13:49:38;6.80;;;3.78;;
8831;SDS011;4452;50.756;4.472;2023-04-15T13:52:04;3.63;;;3.00;;
8831;SDS011;4452;50.756;4.472;2023-04-15T13:54:30;3.85;;;3.53;;
8831;SDS011;4452;50.756;4.472;2023-04-15T13:56:55;3.83;;;3.47;;
8831;SDS011;4452;50.756;4.472;2023-04-15T13:59:22;4.28;;;3.72;;
8831;SDS011;4452;50.756;4.472;2023-04-15T14:01:48;5.75;;;3.95;;
8831;SDS011;4452;50.756;4.472;2023-04-15T14:04:13;4.97;;;3.45;;
8831;SDS011;4452;50.756;4.472;2023-04-15T14:06:39;4.00;;;3.60;;
8831;SDS011;4452;50.756;4.472;2023-04-15T14:09:05;5.90;;;3.90;;
8831;SDS011;4452;50.756;4.472;2023-04-15T14:11:30;3.80;;;3.50;;
8831;SDS011;4452;50.756;4.472;2023-04-15T14:13:56;6.68;;;3.75;;
8831;SDS011;4452;50.756;4.472;2023-04-15T14:16:22;5.60;;;3.47;;
8831;SDS011;4452;50.756;4.472;2023-04-15T14:18:48;3.58;;;3.00;;
8831;SDS011;4452;50.756;4.472;2023-04-15T14:21:13;6.13;;;3.65;;
8831;SDS011;4452;50.756;4.472;2023-04-15T14:23:39;11.60;;;3.05;;
8831;SDS011;4452;50.756;4.472;2023-04-15T14:26:05;3.05;;;2.75;;
8831;SDS011;4452;50.756;4.472;2023-04-15T14:28:30;5.10;;;3.17;;
8831;SDS011;4452;50.756;4.472;2023-04-15T14:30:56;5.57;;;3.25;;
8831;SDS011;4452;50.756;4.472;2023-04-15T14:33:21;4.50;;;3.08;;
8831;SDS011;4452;50.756;4.472;2023-04-15T14:35:48;8.75;;;3.38;;
8831;SDS011;4452;50.756;4.472;2023-04-15T14:38:15;3.55;;;2.63;;
8831;SDS011;4452;50.756;4.472;2023-04-15T14:40:41;5.78;;;2.88;;
8831;SDS011;4452;50.756;4.472;2023-04-15T14:43:07;2.88;;;2.45;;
8831;SDS011;4452;50.756;4.472;2023-04-15T14:45:32;8.25;;;2.65;;
8831;SDS011;4452;50.756;4.472;2023-04-15T14:47:59;2.17;;;1.90;;
8831;SDS011;4452;50.756;4.472;2023-04-15T14:50:25;3.72;;;1.90;;
8831;SDS011;4452;50.756;4.472;2023-04-15T14:52:51;2.47;;;1.77;;
8831;SDS011;4452;50.756;4.472;2023-04-15T14:55:16;6.07;;;2.08;;
8831;SDS011;4452;50.756;4.472;2023-04-15T14:57:42;1.83;;;1.77;;
8831;SDS011;4452;50.756;4.472;2023-04-15T15:00:09;1.70;;;1.60;;
8831;SDS011;4452;50.756;4.472;2023-04-15T15:02:36;2.17;;;1.98;;
8831;SDS011;4452;50.756;4.472;2023-04-15T15:05:03;2.20;;;1.98;;
8831;SDS011;4452;50.756;4.472;2023-04-15T15:07:29;2.65;;;2.00;;
8831;SDS011;4452;50.756;4.472;2023-04-15T15:09:55;3.00;;;2.70;;
8831;SDS011;4452;50.756;4.472;2023-04-15T15:12:20;2.95;;;2.50;;
8831;SDS011;4452;50.756;4.472;2023-04-15T15:14:49;2.50;;;2.30;;
8831;SDS011;4452;50.756;4.472;2023-04-15T15:17:17;2.60;;;2.47;;
8831;SDS011;4452;50.756;4.472;2023-04-15T15:19:43;3.45;;;2.30;;
8831;SDS011;4452;50.756;4.472;2023-04-15T15:22:09;3.42;;;2.40;;
8831;SDS011;4452;50.756;4.472;2023-04-15T15:24:35;2.92;;;2.70;;
8831;SDS011;4452;50.756;4.472;2023-04-15T15:27:01;2.90;;;2.70;;
8831;SDS011;4452;50.756;4.472;2023-04-15T15:29:27;5.82;;;3.03;;